Decoded Metar for KTEW (MASON in MI, USA) (IATA:TEW) | Meteo·Mobile Aviation Weather
aviador You're here:

KTEW Decoded Metar

MASON in MI, USA
Report Time2018-12-15 17:55:00
UTC Time2018-12-15 18:03:50
Flight Rules vfr VFR
Wind040° at 06 kt
W.Decomp.*RWY 10: 3.4 kt HW 4.9 kt LCW
W.Rank040° ranks 27
Current wind is below 040° avg. (6.0)
Visibility9999 m
Phenomena:N/A
Clouds:N/A
Expected CloudBase > 400 ft AGL from Temp-Dew spread
CeilingNone
Temp02°C (ISA -11)
Dew Point01°C (93% RH)
AAT-2.0°C
QNH1021 hPa
Density Alt-617 ft
Elevation919 ft
Report Wrong Elevation
Raw Report
KTEW 151755Z AUTO 04006KT 10SM CLR 02/01 A3015 RMK AO2 T00200011
10020 21002=

Extra information for KTEW:More info

Metar Taf Metar & Taf Last 4 Metars F.Rules Stats Wind Profile Meteogram Temp Stats Airport Information Weather charts Add Link Nearby VenuesMetar ALERT Operation Metar Decoded Social comments

AIRNAV info for KTEW